createdAt,value
2023-04-13T00:04:02.936Z,8.30
2023-04-13T00:09:00.798Z,6.97
2023-04-13T00:13:58.743Z,6.43
2023-04-13T00:18:55.382Z,7.25
2023-04-13T00:23:53.150Z,6.80
2023-04-13T00:28:49.636Z,6.95
2023-04-13T00:33:46.096Z,6.43
2023-04-13T00:38:45.017Z,8.50
2023-04-13T00:43:42.246Z,9.52
2023-04-13T00:48:39.203Z,11.07
2023-04-13T00:53:36.704Z,8.70
2023-04-13T00:58:34.816Z,9.20
2023-04-13T01:03:32.836Z,7.72
2023-04-13T01:08:40.081Z,7.88
2023-04-13T01:13:56.488Z,7.35
2023-04-13T01:18:54.736Z,7.47
2023-04-13T01:23:59.950Z,7.43
2023-04-13T01:28:58.718Z,7.40
2023-04-13T01:33:57.446Z,6.60
2023-04-13T01:38:54.428Z,8.57
2023-04-13T01:43:51.613Z,7.35
2023-04-13T01:48:58.207Z,7.07
2023-04-13T01:54:12.292Z,7.72
2023-04-13T01:59:12.748Z,9.25
2023-04-13T02:04:11.779Z,7.75
2023-04-13T02:09:09.875Z,8.52
2023-04-13T02:14:06.357Z,9.10
2023-04-13T02:19:02.791Z,8.80
2023-04-13T02:23:59.477Z,8.75
2023-04-13T02:28:57.104Z,9.25
2023-04-13T02:33:53.690Z,9.27
2023-04-13T02:38:50.289Z,9.30
2023-04-13T02:43:46.659Z,10.38
2023-04-13T02:48:43.078Z,9.80
2023-04-13T03:11:24.968Z,9.75
2023-04-13T03:16:21.528Z,10.65
2023-04-13T03:21:18.078Z,10.00
2023-04-13T03:26:14.463Z,10.57
2023-04-13T03:31:10.913Z,11.52
2023-04-13T03:36:08.492Z,11.63
2023-04-13T03:41:05.586Z,11.88
2023-04-13T03:46:02.091Z,11.13
2023-04-13T03:50:58.562Z,10.73
2023-04-13T03:55:55.321Z,11.57
2023-04-13T04:00:51.813Z,11.70
2023-04-13T04:05:48.270Z,12.65
2023-04-13T04:10:44.691Z,12.13
2023-04-13T04:15:41.164Z,12.15
2023-04-13T04:20:37.538Z,12.43
2023-04-13T04:25:34.400Z,12.13
2023-04-13T04:30:33.910Z,11.43
2023-04-13T04:35:33.978Z,12.73
2023-04-13T04:40:30.982Z,12.55
2023-04-13T04:45:27.545Z,12.18
2023-04-13T04:50:24.659Z,13.02
2023-04-13T04:55:21.199Z,12.52
2023-04-13T05:00:17.991Z,12.10
2023-04-13T05:05:14.506Z,13.20
2023-04-13T05:10:10.960Z,13.75
2023-04-13T05:15:08.729Z,12.68
2023-04-13T05:20:07.077Z,12.60
2023-04-13T05:25:03.977Z,12.52
2023-04-13T05:30:00.457Z,12.68
2023-04-13T05:34:56.890Z,13.35
2023-04-13T05:39:53.636Z,11.85
2023-04-13T05:44:50.118Z,13.88
2023-04-13T05:49:46.585Z,13.50
2023-04-13T05:54:43.091Z,11.30
2023-04-13T05:59:40.015Z,12.38
2023-04-13T06:04:36.553Z,12.07
2023-04-13T06:09:33.063Z,13.90
2023-04-13T06:14:29.532Z,12.05
2023-04-13T06:19:28.269Z,10.50
2023-04-13T06:24:25.518Z,9.25
2023-04-13T06:29:22.162Z,9.07
2023-04-13T06:34:19.045Z,8.05
2023-04-13T06:39:15.833Z,8.65
2023-04-13T06:44:12.483Z,8.63
2023-04-13T06:49:09.178Z,7.45
2023-04-13T06:54:06.001Z,8.43
2023-04-13T06:59:03.166Z,7.38
2023-04-13T07:04:00.192Z,7.25
2023-04-13T07:08:56.845Z,6.75
2023-04-13T07:13:53.471Z,6.18
2023-04-13T07:18:50.036Z,5.63
2023-04-13T07:23:46.469Z,4.93
2023-04-13T07:28:43.050Z,4.70
2023-04-13T07:33:39.458Z,4.80
2023-04-13T07:38:35.837Z,4.57
2023-04-13T07:43:32.311Z,3.38
2023-04-13T07:48:28.774Z,4.50
2023-04-13T07:53:25.213Z,5.07
2023-04-13T07:58:21.836Z,4.30
2023-04-13T08:03:18.331Z,4.40
2023-04-13T08:08:14.818Z,4.85
2023-04-13T08:13:11.288Z,4.57
2023-04-13T08:18:07.784Z,3.90
2023-04-13T08:23:05.059Z,4.20
2023-04-13T08:28:01.574Z,4.05
2023-04-13T08:32:58.183Z,4.20
2023-04-13T08:37:55.046Z,4.32
2023-04-13T08:42:54.317Z,4.40
2023-04-13T08:47:51.261Z,4.20
2023-04-13T08:52:47.942Z,4.10
2023-04-13T08:57:49.491Z,4.63
2023-04-13T09:03:00.289Z,4.05
2023-04-13T09:08:03.779Z,4.22
2023-04-13T09:13:00.965Z,4.45
2023-04-13T09:18:07.290Z,4.03
2023-04-13T09:23:14.862Z,4.32
2023-04-13T09:28:18.659Z,4.13
2023-04-13T09:33:16.776Z,4.30
2023-04-13T09:38:16.135Z,4.40
2023-04-13T09:43:12.557Z,4.38
2023-04-13T09:48:20.602Z,4.80
2023-04-13T09:53:17.216Z,4.85
2023-04-13T09:58:17.325Z,4.63
2023-04-13T10:03:15.596Z,5.00
2023-04-13T10:08:12.208Z,4.60
2023-04-13T10:13:22.650Z,4.70
2023-04-13T10:23:38.959Z,4.45
2023-04-13T10:28:46.204Z,5.10
2023-04-13T10:33:49.943Z,4.40
2023-04-13T10:38:47.056Z,5.68
2023-04-13T10:43:43.526Z,5.18
2023-04-13T10:48:43.108Z,5.05
2023-04-13T10:53:39.607Z,5.13
2023-04-13T10:58:36.125Z,5.20
2023-04-13T11:03:32.710Z,5.00
2023-04-13T11:08:30.414Z,5.20
2023-04-13T11:13:28.883Z,4.68
2023-04-13T11:18:26.693Z,4.70
2023-04-13T11:23:24.544Z,5.07
2023-04-13T11:28:25.207Z,4.90
2023-04-13T11:33:29.934Z,4.90
2023-04-13T11:38:27.860Z,4.97
2023-04-13T11:43:25.251Z,5.00
2023-04-13T11:48:22.778Z,5.00
2023-04-13T11:53:19.958Z,4.78
2023-04-13T11:58:18.722Z,4.90
2023-04-13T12:08:22.844Z,4.97
2023-04-13T12:13:35.369Z,5.15
2023-04-13T12:18:37.566Z,4.95
2023-04-13T12:23:34.373Z,4.60
2023-04-13T12:28:35.231Z,4.60
2023-04-13T12:33:31.797Z,4.07
2023-04-13T12:38:28.212Z,4.50
2023-04-13T12:43:26.090Z,4.50
2023-04-13T12:48:22.520Z,4.53
2023-04-13T12:53:18.942Z,4.93
2023-04-13T12:58:15.566Z,4.40
2023-04-13T13:03:14.457Z,4.70
2023-04-13T13:08:11.532Z,4.97
2023-04-13T13:13:08.058Z,4.93
2023-04-13T13:18:06.575Z,4.75
2023-04-13T13:23:03.105Z,4.75
2023-04-13T13:28:13.034Z,4.95
2023-04-13T13:33:10.954Z,5.57
2023-04-13T13:38:07.441Z,4.90
2023-04-13T13:43:04.500Z,5.22
2023-04-13T13:48:01.103Z,4.57
2023-04-13T13:53:03.058Z,4.88
2023-04-13T13:58:01.002Z,4.60
2023-04-13T14:02:57.978Z,4.47
2023-04-13T14:07:54.462Z,3.85
2023-04-13T14:12:52.589Z,4.38
2023-04-13T14:18:02.419Z,4.18
2023-04-13T14:23:02.828Z,4.90
2023-04-13T14:27:59.216Z,4.50
2023-04-13T14:32:56.471Z,4.15
2023-04-13T14:37:53.183Z,4.35
2023-04-13T14:42:52.873Z,3.85
2023-04-13T14:47:50.048Z,4.10
2023-04-13T14:52:47.396Z,4.50
2023-04-13T14:57:45.101Z,4.50
2023-04-13T15:02:41.932Z,4.30
2023-04-13T15:07:38.546Z,4.30
2023-04-13T15:12:35.135Z,4.38
2023-04-13T15:17:31.621Z,4.93
2023-04-13T15:22:28.127Z,4.57
2023-04-13T15:27:26.779Z,4.55
2023-04-13T15:32:23.390Z,4.82
2023-04-13T15:37:19.973Z,5.07
2023-04-13T15:42:16.463Z,5.45
2023-04-13T15:47:12.954Z,6.63
2023-04-13T15:52:09.409Z,4.97
2023-04-13T15:57:06.631Z,5.00
2023-04-13T16:02:03.333Z,4.80
2023-04-13T16:12:02.615Z,5.00
2023-04-13T16:16:59.968Z,5.45
2023-04-13T16:21:57.813Z,4.85
2023-04-13T16:26:54.274Z,5.05
2023-04-13T16:31:50.723Z,5.25
2023-04-13T16:36:48.210Z,4.78
2023-04-13T16:41:44.662Z,6.10
2023-04-13T16:46:41.279Z,5.35
2023-04-13T16:51:37.884Z,5.03
2023-04-13T16:56:34.341Z,5.13
2023-04-13T17:01:30.985Z,5.30
2023-04-13T17:06:27.664Z,4.60
2023-04-13T17:11:24.032Z,3.88
2023-04-13T17:16:21.313Z,4.15
2023-04-13T17:21:18.100Z,3.58
2023-04-13T17:26:14.954Z,3.72
2023-04-13T17:31:11.390Z,3.42
2023-04-13T17:36:08.116Z,3.80
2023-04-13T17:41:06.488Z,3.40
2023-04-13T17:46:03.000Z,3.45
2023-04-13T17:50:59.524Z,3.60
2023-04-13T17:55:56.127Z,3.70
2023-04-13T18:00:52.625Z,3.80
2023-04-13T18:05:49.053Z,4.28
2023-04-13T18:10:46.015Z,4.40
2023-04-13T18:15:47.224Z,3.90
2023-04-13T18:20:45.493Z,4.43
2023-04-13T18:25:41.935Z,4.72
2023-04-13T18:30:38.337Z,4.55
2023-04-13T18:35:35.608Z,5.13
2023-04-13T18:40:32.028Z,5.72
2023-04-13T18:45:28.587Z,5.20
2023-04-13T18:50:26.505Z,4.85
2023-04-13T18:55:25.499Z,5.28
2023-04-13T19:00:22.252Z,5.22
2023-04-13T19:05:19.301Z,5.38
2023-04-13T19:10:15.793Z,6.38
2023-04-13T19:15:12.215Z,4.70
2023-04-13T19:20:10.535Z,4.78
2023-04-13T19:25:13.897Z,4.65
2023-04-13T19:30:14.262Z,5.05
2023-04-13T19:35:12.608Z,5.22
2023-04-13T19:40:10.305Z,5.80
2023-04-13T19:45:07.213Z,4.60
2023-04-13T19:50:04.463Z,5.25
2023-04-13T19:55:01.080Z,4.97
2023-04-13T19:59:57.685Z,5.53
2023-04-13T20:04:54.516Z,5.70
2023-04-13T20:09:51.079Z,5.28
2023-04-13T20:14:48.245Z,4.88
2023-04-13T20:19:44.697Z,4.72
2023-04-13T20:24:41.097Z,4.47
2023-04-13T20:29:37.573Z,5.38
2023-04-13T20:34:38.054Z,4.88
2023-04-13T20:39:50.264Z,4.90
2023-04-13T20:45:02.981Z,5.30
2023-04-13T20:50:03.694Z,5.60
2023-04-13T20:55:02.045Z,6.20
2023-04-13T21:00:00.034Z,6.65
2023-04-13T21:04:59.871Z,5.25
2023-04-13T21:09:58.426Z,5.60
2023-04-13T21:14:54.934Z,5.90
2023-04-13T21:19:51.417Z,5.68
2023-04-13T21:24:47.806Z,5.70
2023-04-13T21:42:50.102Z,6.53
2023-04-13T21:47:48.175Z,6.10
2023-04-13T21:52:46.722Z,7.32
2023-04-13T21:57:46.942Z,6.30
2023-04-13T22:02:44.107Z,6.20
2023-04-13T22:07:43.178Z,6.40
2023-04-13T22:12:40.377Z,6.40
2023-04-13T22:17:36.937Z,7.25
2023-04-13T22:22:36.292Z,6.82
2023-04-13T22:27:52.258Z,6.80
2023-04-13T22:32:56.722Z,7.05
2023-04-13T22:37:56.158Z,7.60
2023-04-13T22:48:21.234Z,6.95
2023-04-13T22:59:12.761Z,6.35
2023-04-13T23:04:09.537Z,7.30
2023-04-13T23:09:07.017Z,6.63
2023-04-13T23:14:03.535Z,7.65
2023-04-13T23:19:00.545Z,6.93
2023-04-13T23:23:57.199Z,7.00
2023-04-13T23:28:53.644Z,7.20
2023-04-13T23:33:50.829Z,7.93
2023-04-13T23:38:48.922Z,6.80
2023-04-13T23:43:46.705Z,8.35
2023-04-13T23:48:43.336Z,8.05
2023-04-13T23:53:39.813Z,7.47
2023-04-13T23:58:38.030Z,7.50
